sensor_id;sensor_type;location;lat;lon;timestamp;P1;durP1;ratioP1;P2;durP2;ratioP2
6505;SDS011;3286;49.858;8.768;2022-12-10T00:01:21;20.07;;;11.40;;
6505;SDS011;3286;49.858;8.768;2022-12-10T00:03:48;22.37;;;12.07;;
6505;SDS011;3286;49.858;8.768;2022-12-10T00:06:16;21.83;;;11.60;;
6505;SDS011;3286;49.858;8.768;2022-12-10T00:08:43;20.67;;;11.23;;
6505;SDS011;3286;49.858;8.768;2022-12-10T00:11:15;22.03;;;12.37;;
6505;SDS011;3286;49.858;8.768;2022-12-10T00:13:42;17.63;;;10.53;;
6505;SDS011;3286;49.858;8.768;2022-12-10T00:16:10;22.83;;;11.77;;
6505;SDS011;3286;49.858;8.768;2022-12-10T00:18:43;20.47;;;11.07;;
6505;SDS011;3286;49.858;8.768;2022-12-10T00:21:10;23.07;;;11.57;;
6505;SDS011;3286;49.858;8.768;2022-12-10T00:23:39;19.83;;;11.53;;
6505;SDS011;3286;49.858;8.768;2022-12-10T00:26:13;19.20;;;11.13;;
6505;SDS011;3286;49.858;8.768;2022-12-10T00:28:43;23.27;;;12.73;;
6505;SDS011;3286;49.858;8.768;2022-12-10T00:31:14;21.03;;;11.90;;
6505;SDS011;3286;49.858;8.768;2022-12-10T00:33:50;19.13;;;11.20;;
6505;SDS011;3286;49.858;8.768;2022-12-10T00:36:19;21.90;;;10.93;;
6505;SDS011;3286;49.858;8.768;2022-12-10T00:38:47;22.17;;;11.77;;
6505;SDS011;3286;49.858;8.768;2022-12-10T00:41:19;20.23;;;11.03;;
6505;SDS011;3286;49.858;8.768;2022-12-10T00:43:46;21.17;;;12.23;;
6505;SDS011;3286;49.858;8.768;2022-12-10T00:46:14;22.10;;;11.63;;
6505;SDS011;3286;49.858;8.768;2022-12-10T00:48:42;19.70;;;11.53;;
6505;SDS011;3286;49.858;8.768;2022-12-10T00:51:11;20.33;;;11.40;;
6505;SDS011;3286;49.858;8.768;2022-12-10T00:53:40;21.23;;;12.13;;
6505;SDS011;3286;49.858;8.768;2022-12-10T00:56:08;22.57;;;12.20;;
6505;SDS011;3286;49.858;8.768;2022-12-10T00:58:38;23.10;;;11.80;;
6505;SDS011;3286;49.858;8.768;2022-12-10T01:01:06;23.73;;;10.93;;
6505;SDS011;3286;49.858;8.768;2022-12-10T01:03:35;21.50;;;11.60;;
6505;SDS011;3286;49.858;8.768;2022-12-10T01:06:09;21.50;;;11.43;;
6505;SDS011;3286;49.858;8.768;2022-12-10T01:08:37;22.73;;;11.33;;
6505;SDS011;3286;49.858;8.768;2022-12-10T01:11:04;21.37;;;12.07;;
6505;SDS011;3286;49.858;8.768;2022-12-10T01:13:32;21.10;;;11.43;;
6505;SDS011;3286;49.858;8.768;2022-12-10T01:16:01;22.60;;;12.60;;
6505;SDS011;3286;49.858;8.768;2022-12-10T01:18:28;21.37;;;11.80;;
6505;SDS011;3286;49.858;8.768;2022-12-10T01:21:01;22.57;;;11.83;;
6505;SDS011;3286;49.858;8.768;2022-12-10T01:23:31;20.93;;;11.77;;
6505;SDS011;3286;49.858;8.768;2022-12-10T01:25:59;19.90;;;10.60;;
6505;SDS011;3286;49.858;8.768;2022-12-10T01:28:29;21.27;;;11.17;;
6505;SDS011;3286;49.858;8.768;2022-12-10T01:31:02;17.87;;;11.00;;
6505;SDS011;3286;49.858;8.768;2022-12-10T01:33:30;20.27;;;10.87;;
6505;SDS011;3286;49.858;8.768;2022-12-10T01:36:00;19.90;;;11.70;;
6505;SDS011;3286;49.858;8.768;2022-12-10T01:38:34;25.07;;;11.40;;
6505;SDS011;3286;49.858;8.768;2022-12-10T01:41:08;19.30;;;10.93;;
6505;SDS011;3286;49.858;8.768;2022-12-10T01:43:51;19.20;;;11.20;;
6505;SDS011;3286;49.858;8.768;2022-12-10T01:46:22;24.27;;;12.03;;
6505;SDS011;3286;49.858;8.768;2022-12-10T01:48:50;22.90;;;11.87;;
6505;SDS011;3286;49.858;8.768;2022-12-10T01:51:17;21.40;;;11.83;;
6505;SDS011;3286;49.858;8.768;2022-12-10T01:53:44;18.70;;;11.27;;
6505;SDS011;3286;49.858;8.768;2022-12-10T01:56:13;18.73;;;11.07;;
6505;SDS011;3286;49.858;8.768;2022-12-10T01:58:45;22.93;;;11.27;;
6505;SDS011;3286;49.858;8.768;2022-12-10T02:01:18;21.50;;;11.80;;
6505;SDS011;3286;49.858;8.768;2022-12-10T02:03:56;19.80;;;11.17;;
6505;SDS011;3286;49.858;8.768;2022-12-10T02:06:38;18.77;;;10.80;;
6505;SDS011;3286;49.858;8.768;2022-12-10T02:09:12;19.90;;;11.50;;
6505;SDS011;3286;49.858;8.768;2022-12-10T02:11:53;21.20;;;11.83;;
6505;SDS011;3286;49.858;8.768;2022-12-10T02:14:27;23.20;;;11.30;;
6505;SDS011;3286;49.858;8.768;2022-12-10T02:17:05;20.17;;;11.60;;
6505;SDS011;3286;49.858;8.768;2022-12-10T02:19:41;18.43;;;11.07;;
6505;SDS011;3286;49.858;8.768;2022-12-10T02:22:21;20.47;;;11.00;;
6505;SDS011;3286;49.858;8.768;2022-12-10T02:24:51;18.90;;;10.83;;
6505;SDS011;3286;49.858;8.768;2022-12-10T02:27:25;20.43;;;11.63;;
6505;SDS011;3286;49.858;8.768;2022-12-10T02:29:58;17.73;;;10.50;;
6505;SDS011;3286;49.858;8.768;2022-12-10T02:32:31;21.90;;;10.37;;
6505;SDS011;3286;49.858;8.768;2022-12-10T02:35:01;20.83;;;11.60;;
6505;SDS011;3286;49.858;8.768;2022-12-10T02:37:34;19.90;;;10.73;;
6505;SDS011;3286;49.858;8.768;2022-12-10T02:40:06;20.53;;;11.33;;
6505;SDS011;3286;49.858;8.768;2022-12-10T02:42:38;19.20;;;11.03;;
6505;SDS011;3286;49.858;8.768;2022-12-10T02:45:10;23.50;;;12.13;;
6505;SDS011;3286;49.858;8.768;2022-12-10T02:47:37;19.70;;;10.83;;
6505;SDS011;3286;49.858;8.768;2022-12-10T02:50:06;20.03;;;11.13;;
6505;SDS011;3286;49.858;8.768;2022-12-10T02:52:35;20.37;;;11.33;;
6505;SDS011;3286;49.858;8.768;2022-12-10T02:55:05;21.20;;;11.13;;
6505;SDS011;3286;49.858;8.768;2022-12-10T02:57:34;22.33;;;11.27;;
6505;SDS011;3286;49.858;8.768;2022-12-10T03:00:05;21.13;;;10.83;;
6505;SDS011;3286;49.858;8.768;2022-12-10T03:02:42;20.43;;;11.23;;
6505;SDS011;3286;49.858;8.768;2022-12-10T03:05:26;17.93;;;10.50;;
6505;SDS011;3286;49.858;8.768;2022-12-10T03:08:03;21.50;;;10.67;;
6505;SDS011;3286;49.858;8.768;2022-12-10T03:10:39;18.63;;;9.80;;
6505;SDS011;3286;49.858;8.768;2022-12-10T03:13:12;19.23;;;10.63;;
6505;SDS011;3286;49.858;8.768;2022-12-10T03:15:42;18.47;;;10.97;;
6505;SDS011;3286;49.858;8.768;2022-12-10T03:18:12;17.57;;;10.00;;
6505;SDS011;3286;49.858;8.768;2022-12-10T03:20:44;17.77;;;10.67;;
6505;SDS011;3286;49.858;8.768;2022-12-10T03:23:14;17.17;;;10.23;;
6505;SDS011;3286;49.858;8.768;2022-12-10T03:25:43;22.07;;;11.03;;
6505;SDS011;3286;49.858;8.768;2022-12-10T03:28:12;17.63;;;9.93;;
6505;SDS011;3286;49.858;8.768;2022-12-10T03:30:41;18.27;;;9.87;;
6505;SDS011;3286;49.858;8.768;2022-12-10T03:33:12;17.47;;;10.07;;
6505;SDS011;3286;49.858;8.768;2022-12-10T03:35:42;15.53;;;9.23;;
6505;SDS011;3286;49.858;8.768;2022-12-10T03:38:12;17.37;;;9.70;;
6505;SDS011;3286;49.858;8.768;2022-12-10T03:40:41;16.47;;;9.77;;
6505;SDS011;3286;49.858;8.768;2022-12-10T03:43:08;16.53;;;10.07;;
6505;SDS011;3286;49.858;8.768;2022-12-10T03:45:38;17.40;;;10.47;;
6505;SDS011;3286;49.858;8.768;2022-12-10T03:48:05;14.30;;;8.50;;
6505;SDS011;3286;49.858;8.768;2022-12-10T03:50:34;17.10;;;9.87;;
6505;SDS011;3286;49.858;8.768;2022-12-10T03:53:00;17.63;;;10.10;;
6505;SDS011;3286;49.858;8.768;2022-12-10T03:55:27;20.03;;;10.13;;
6505;SDS011;3286;49.858;8.768;2022-12-10T03:57:57;17.27;;;9.67;;
6505;SDS011;3286;49.858;8.768;2022-12-10T04:00:24;22.27;;;10.37;;
6505;SDS011;3286;49.858;8.768;2022-12-10T04:02:53;15.13;;;9.57;;
6505;SDS011;3286;49.858;8.768;2022-12-10T04:05:21;16.23;;;9.67;;
6505;SDS011;3286;49.858;8.768;2022-12-10T04:07:49;16.27;;;8.83;;
6505;SDS011;3286;49.858;8.768;2022-12-10T04:10:18;14.80;;;9.23;;
6505;SDS011;3286;49.858;8.768;2022-12-10T04:12:46;15.37;;;8.30;;
6505;SDS011;3286;49.858;8.768;2022-12-10T04:15:33;16.00;;;8.57;;
6505;SDS011;3286;49.858;8.768;2022-12-10T04:18:17;15.57;;;8.97;;
6505;SDS011;3286;49.858;8.768;2022-12-10T04:20:43;16.53;;;9.87;;
6505;SDS011;3286;49.858;8.768;2022-12-10T04:23:29;15.17;;;8.70;;
6505;SDS011;3286;49.858;8.768;2022-12-10T04:26:15;19.80;;;10.07;;
6505;SDS011;3286;49.858;8.768;2022-12-10T04:28:59;16.50;;;9.10;;
6505;SDS011;3286;49.858;8.768;2022-12-10T04:31:29;16.97;;;9.07;;
6505;SDS011;3286;49.858;8.768;2022-12-10T04:33:59;15.77;;;9.67;;
6505;SDS011;3286;49.858;8.768;2022-12-10T04:36:28;18.37;;;10.17;;
6505;SDS011;3286;49.858;8.768;2022-12-10T04:38:57;16.50;;;9.10;;
6505;SDS011;3286;49.858;8.768;2022-12-10T04:41:24;15.63;;;9.13;;
6505;SDS011;3286;49.858;8.768;2022-12-10T04:43:51;16.17;;;9.80;;
6505;SDS011;3286;49.858;8.768;2022-12-10T04:46:20;22.57;;;10.30;;
6505;SDS011;3286;49.858;8.768;2022-12-10T04:48:47;13.83;;;9.00;;
6505;SDS011;3286;49.858;8.768;2022-12-10T04:51:14;15.23;;;9.07;;
6505;SDS011;3286;49.858;8.768;2022-12-10T04:53:42;19.07;;;10.10;;
6505;SDS011;3286;49.858;8.768;2022-12-10T04:56:10;17.07;;;9.50;;
6505;SDS011;3286;49.858;8.768;2022-12-10T04:58:40;16.83;;;9.03;;
6505;SDS011;3286;49.858;8.768;2022-12-10T05:01:08;18.23;;;10.10;;
6505;SDS011;3286;49.858;8.768;2022-12-10T05:03:39;16.23;;;9.57;;
6505;SDS011;3286;49.858;8.768;2022-12-10T05:06:10;16.33;;;9.77;;
6505;SDS011;3286;49.858;8.768;2022-12-10T05:08:38;17.13;;;9.67;;
6505;SDS011;3286;49.858;8.768;2022-12-10T05:11:07;17.23;;;10.10;;
6505;SDS011;3286;49.858;8.768;2022-12-10T05:13:37;16.03;;;9.20;;
6505;SDS011;3286;49.858;8.768;2022-12-10T05:16:04;20.57;;;10.63;;
6505;SDS011;3286;49.858;8.768;2022-12-10T05:18:33;18.43;;;10.67;;
6505;SDS011;3286;49.858;8.768;2022-12-10T05:21:04;20.93;;;10.77;;
6505;SDS011;3286;49.858;8.768;2022-12-10T05:23:33;16.93;;;10.80;;
6505;SDS011;3286;49.858;8.768;2022-12-10T05:26:04;20.83;;;10.17;;
6505;SDS011;3286;49.858;8.768;2022-12-10T05:28:33;19.63;;;10.17;;
6505;SDS011;3286;49.858;8.768;2022-12-10T05:31:02;17.90;;;10.00;;
6505;SDS011;3286;49.858;8.768;2022-12-10T05:33:30;18.77;;;10.93;;
6505;SDS011;3286;49.858;8.768;2022-12-10T05:35:58;19.90;;;11.03;;
6505;SDS011;3286;49.858;8.768;2022-12-10T05:38:27;19.50;;;10.40;;
6505;SDS011;3286;49.858;8.768;2022-12-10T05:41:00;19.77;;;10.53;;
6505;SDS011;3286;49.858;8.768;2022-12-10T05:43:29;19.73;;;10.63;;
6505;SDS011;3286;49.858;8.768;2022-12-10T05:45:58;17.90;;;10.10;;
6505;SDS011;3286;49.858;8.768;2022-12-10T05:48:27;20.27;;;10.73;;
6505;SDS011;3286;49.858;8.768;2022-12-10T05:50:58;15.43;;;9.50;;
6505;SDS011;3286;49.858;8.768;2022-12-10T05:53:27;17.80;;;10.37;;
6505;SDS011;3286;49.858;8.768;2022-12-10T05:55:58;14.73;;;10.00;;
6505;SDS011;3286;49.858;8.768;2022-12-10T05:58:28;16.37;;;9.93;;
6505;SDS011;3286;49.858;8.768;2022-12-10T06:00:55;18.17;;;11.03;;
6505;SDS011;3286;49.858;8.768;2022-12-10T06:03:26;20.10;;;10.87;;
6505;SDS011;3286;49.858;8.768;2022-12-10T06:05:54;18.47;;;10.67;;
6505;SDS011;3286;49.858;8.768;2022-12-10T06:08:23;18.80;;;10.97;;
6505;SDS011;3286;49.858;8.768;2022-12-10T06:10:49;19.23;;;10.70;;
6505;SDS011;3286;49.858;8.768;2022-12-10T06:13:16;17.77;;;9.97;;
6505;SDS011;3286;49.858;8.768;2022-12-10T06:15:43;17.53;;;11.07;;
6505;SDS011;3286;49.858;8.768;2022-12-10T06:18:09;17.50;;;10.20;;
6505;SDS011;3286;49.858;8.768;2022-12-10T06:20:38;18.63;;;10.60;;
6505;SDS011;3286;49.858;8.768;2022-12-10T06:23:05;16.13;;;10.10;;
6505;SDS011;3286;49.858;8.768;2022-12-10T06:25:32;18.33;;;10.27;;
6505;SDS011;3286;49.858;8.768;2022-12-10T06:27:59;17.47;;;10.23;;
6505;SDS011;3286;49.858;8.768;2022-12-10T06:30:29;18.80;;;9.77;;
6505;SDS011;3286;49.858;8.768;2022-12-10T06:32:55;20.80;;;10.27;;
6505;SDS011;3286;49.858;8.768;2022-12-10T06:35:24;20.03;;;10.97;;
6505;SDS011;3286;49.858;8.768;2022-12-10T06:37:52;15.67;;;9.83;;
6505;SDS011;3286;49.858;8.768;2022-12-10T06:40:18;20.30;;;10.63;;
6505;SDS011;3286;49.858;8.768;2022-12-10T06:42:47;18.93;;;10.40;;
6505;SDS011;3286;49.858;8.768;2022-12-10T06:45:16;19.77;;;10.87;;
6505;SDS011;3286;49.858;8.768;2022-12-10T06:47:43;19.07;;;10.30;;
6505;SDS011;3286;49.858;8.768;2022-12-10T06:50:09;19.90;;;10.87;;
6505;SDS011;3286;49.858;8.768;2022-12-10T06:52:36;22.97;;;11.93;;
6505;SDS011;3286;49.858;8.768;2022-12-10T06:55:04;17.97;;;10.73;;
6505;SDS011;3286;49.858;8.768;2022-12-10T06:57:31;18.67;;;10.50;;
6505;SDS011;3286;49.858;8.768;2022-12-10T07:00:00;15.97;;;10.63;;
6505;SDS011;3286;49.858;8.768;2022-12-10T07:02:26;18.10;;;10.33;;
6505;SDS011;3286;49.858;8.768;2022-12-10T07:04:55;19.73;;;10.77;;
6505;SDS011;3286;49.858;8.768;2022-12-10T07:07:22;17.67;;;10.27;;
6505;SDS011;3286;49.858;8.768;2022-12-10T07:09:51;18.00;;;9.97;;
6505;SDS011;3286;49.858;8.768;2022-12-10T07:12:19;19.33;;;11.43;;
6505;SDS011;3286;49.858;8.768;2022-12-10T07:14:46;17.67;;;10.07;;
6505;SDS011;3286;49.858;8.768;2022-12-10T07:17:12;18.73;;;10.50;;
6505;SDS011;3286;49.858;8.768;2022-12-10T07:19:40;18.57;;;10.90;;
6505;SDS011;3286;49.858;8.768;2022-12-10T07:22:07;18.30;;;9.97;;
6505;SDS011;3286;49.858;8.768;2022-12-10T07:24:33;22.30;;;11.07;;
6505;SDS011;3286;49.858;8.768;2022-12-10T07:27:00;17.10;;;9.73;;
6505;SDS011;3286;49.858;8.768;2022-12-10T07:29:29;17.60;;;10.43;;
6505;SDS011;3286;49.858;8.768;2022-12-10T07:31:59;17.83;;;10.60;;
6505;SDS011;3286;49.858;8.768;2022-12-10T07:34:27;22.00;;;10.47;;
6505;SDS011;3286;49.858;8.768;2022-12-10T07:36:53;15.80;;;9.43;;
6505;SDS011;3286;49.858;8.768;2022-12-10T07:39:20;16.67;;;9.50;;
6505;SDS011;3286;49.858;8.768;2022-12-10T07:41:52;17.30;;;10.03;;
6505;SDS011;3286;49.858;8.768;2022-12-10T07:44:19;21.37;;;10.07;;
6505;SDS011;3286;49.858;8.768;2022-12-10T07:46:49;17.90;;;9.47;;
6505;SDS011;3286;49.858;8.768;2022-12-10T07:49:20;19.90;;;10.47;;
6505;SDS011;3286;49.858;8.768;2022-12-10T07:51:50;16.27;;;9.00;;
6505;SDS011;3286;49.858;8.768;2022-12-10T07:54:17;15.63;;;9.47;;
6505;SDS011;3286;49.858;8.768;2022-12-10T07:56:45;14.20;;;8.47;;
6505;SDS011;3286;49.858;8.768;2022-12-10T07:59:11;14.73;;;9.13;;
6505;SDS011;3286;49.858;8.768;2022-12-10T08:01:38;16.10;;;9.20;;
6505;SDS011;3286;49.858;8.768;2022-12-10T08:04:06;15.53;;;9.17;;
6505;SDS011;3286;49.858;8.768;2022-12-10T08:06:33;16.20;;;9.20;;
6505;SDS011;3286;49.858;8.768;2022-12-10T08:09:02;14.23;;;8.73;;
6505;SDS011;3286;49.858;8.768;2022-12-10T08:11:29;14.30;;;8.90;;
6505;SDS011;3286;49.858;8.768;2022-12-10T08:13:55;16.90;;;9.07;;
6505;SDS011;3286;49.858;8.768;2022-12-10T08:16:23;13.13;;;8.37;;
6505;SDS011;3286;49.858;8.768;2022-12-10T08:18:54;14.60;;;8.63;;
6505;SDS011;3286;49.858;8.768;2022-12-10T08:21:24;14.87;;;8.50;;
6505;SDS011;3286;49.858;8.768;2022-12-10T08:23:52;13.27;;;9.23;;
6505;SDS011;3286;49.858;8.768;2022-12-10T08:26:20;15.03;;;9.10;;
6505;SDS011;3286;49.858;8.768;2022-12-10T08:28:52;15.47;;;9.40;;
6505;SDS011;3286;49.858;8.768;2022-12-10T08:31:25;14.63;;;8.53;;
6505;SDS011;3286;49.858;8.768;2022-12-10T08:33:52;13.93;;;9.10;;
6505;SDS011;3286;49.858;8.768;2022-12-10T08:36:20;13.30;;;8.10;;
6505;SDS011;3286;49.858;8.768;2022-12-10T08:38:48;13.83;;;8.70;;
6505;SDS011;3286;49.858;8.768;2022-12-10T08:41:17;31.57;;;10.70;;
6505;SDS011;3286;49.858;8.768;2022-12-10T08:43:45;15.30;;;9.00;;
6505;SDS011;3286;49.858;8.768;2022-12-10T08:46:18;14.53;;;8.73;;
6505;SDS011;3286;49.858;8.768;2022-12-10T08:48:48;13.93;;;8.53;;
6505;SDS011;3286;49.858;8.768;2022-12-10T08:51:18;14.77;;;8.27;;
6505;SDS011;3286;49.858;8.768;2022-12-10T08:53:45;18.40;;;9.57;;
6505;SDS011;3286;49.858;8.768;2022-12-10T08:56:14;12.27;;;8.30;;
6505;SDS011;3286;49.858;8.768;2022-12-10T08:58:44;14.83;;;8.60;;
6505;SDS011;3286;49.858;8.768;2022-12-10T09:01:11;13.03;;;8.03;;
6505;SDS011;3286;49.858;8.768;2022-12-10T09:03:40;13.93;;;8.33;;
6505;SDS011;3286;49.858;8.768;2022-12-10T09:06:09;15.63;;;8.00;;
6505;SDS011;3286;49.858;8.768;2022-12-10T09:08:41;15.67;;;9.20;;
6505;SDS011;3286;49.858;8.768;2022-12-10T09:11:08;19.03;;;8.80;;
6505;SDS011;3286;49.858;8.768;2022-12-10T09:13:39;14.23;;;8.43;;
6505;SDS011;3286;49.858;8.768;2022-12-10T09:16:07;16.13;;;9.33;;
6505;SDS011;3286;49.858;8.768;2022-12-10T09:18:34;14.53;;;8.47;;
6505;SDS011;3286;49.858;8.768;2022-12-10T09:21:04;13.57;;;8.47;;
6505;SDS011;3286;49.858;8.768;2022-12-10T09:23:33;15.87;;;8.73;;
6505;SDS011;3286;49.858;8.768;2022-12-10T09:26:00;13.70;;;8.43;;
6505;SDS011;3286;49.858;8.768;2022-12-10T09:28:27;13.30;;;8.23;;
6505;SDS011;3286;49.858;8.768;2022-12-10T09:30:59;14.07;;;8.50;;
6505;SDS011;3286;49.858;8.768;2022-12-10T09:33:27;14.50;;;8.40;;
6505;SDS011;3286;49.858;8.768;2022-12-10T09:35:54;14.90;;;9.00;;
6505;SDS011;3286;49.858;8.768;2022-12-10T09:38:21;12.70;;;8.03;;
6505;SDS011;3286;49.858;8.768;2022-12-10T09:40:50;14.20;;;8.53;;
6505;SDS011;3286;49.858;8.768;2022-12-10T09:43:26;13.60;;;8.57;;
6505;SDS011;3286;49.858;8.768;2022-12-10T09:46:06;12.60;;;7.87;;
6505;SDS011;3286;49.858;8.768;2022-12-10T09:48:40;14.00;;;8.57;;
6505;SDS011;3286;49.858;8.768;2022-12-10T09:51:19;15.23;;;8.53;;
6505;SDS011;3286;49.858;8.768;2022-12-10T09:53:47;15.73;;;8.23;;
6505;SDS011;3286;49.858;8.768;2022-12-10T09:56:24;15.43;;;9.30;;
6505;SDS011;3286;49.858;8.768;2022-12-10T09:58:55;13.17;;;7.97;;
6505;SDS011;3286;49.858;8.768;2022-12-10T10:01:27;14.33;;;8.47;;
6505;SDS011;3286;49.858;8.768;2022-12-10T10:03:57;15.57;;;8.07;;
6505;SDS011;3286;49.858;8.768;2022-12-10T10:06:24;12.37;;;7.40;;
6505;SDS011;3286;49.858;8.768;2022-12-10T10:08:54;11.83;;;7.33;;
6505;SDS011;3286;49.858;8.768;2022-12-10T10:11:27;13.77;;;7.83;;
6505;SDS011;3286;49.858;8.768;2022-12-10T10:13:56;12.23;;;7.27;;
6505;SDS011;3286;49.858;8.768;2022-12-10T10:16:27;15.30;;;7.97;;
6505;SDS011;3286;49.858;8.768;2022-12-10T10:19:00;11.07;;;7.20;;
6505;SDS011;3286;49.858;8.768;2022-12-10T10:21:30;15.03;;;8.63;;
6505;SDS011;3286;49.858;8.768;2022-12-10T10:24:01;12.93;;;7.90;;
6505;SDS011;3286;49.858;8.768;2022-12-10T10:26:28;13.60;;;7.93;;
6505;SDS011;3286;49.858;8.768;2022-12-10T10:28:56;11.40;;;7.30;;
6505;SDS011;3286;49.858;8.768;2022-12-10T10:31:28;12.60;;;7.17;;
6505;SDS011;3286;49.858;8.768;2022-12-10T10:33:57;13.17;;;7.80;;
6505;SDS011;3286;49.858;8.768;2022-12-10T10:36:26;13.33;;;8.00;;
6505;SDS011;3286;49.858;8.768;2022-12-10T10:39:07;13.07;;;7.73;;
6505;SDS011;3286;49.858;8.768;2022-12-10T10:41:38;11.13;;;7.23;;
6505;SDS011;3286;49.858;8.768;2022-12-10T10:44:12;15.13;;;7.63;;
6505;SDS011;3286;49.858;8.768;2022-12-10T10:46:43;11.83;;;7.27;;
6505;SDS011;3286;49.858;8.768;2022-12-10T10:49:17;11.77;;;7.33;;
6505;SDS011;3286;49.858;8.768;2022-12-10T10:51:49;10.67;;;7.47;;
6505;SDS011;3286;49.858;8.768;2022-12-10T10:54:31;12.93;;;7.60;;
6505;SDS011;3286;49.858;8.768;2022-12-10T10:57:03;12.97;;;7.83;;
6505;SDS011;3286;49.858;8.768;2022-12-10T10:59:36;12.03;;;7.30;;
6505;SDS011;3286;49.858;8.768;2022-12-10T11:02:12;12.27;;;7.07;;
6505;SDS011;3286;49.858;8.768;2022-12-10T11:04:46;11.00;;;7.00;;
6505;SDS011;3286;49.858;8.768;2022-12-10T11:07:19;12.20;;;7.73;;
6505;SDS011;3286;49.858;8.768;2022-12-10T11:09:51;11.57;;;7.20;;
6505;SDS011;3286;49.858;8.768;2022-12-10T11:12:32;16.27;;;7.17;;
6505;SDS011;3286;49.858;8.768;2022-12-10T11:15:02;13.03;;;7.80;;
6505;SDS011;3286;49.858;8.768;2022-12-10T11:17:56;11.67;;;7.27;;
6505;SDS011;3286;49.858;8.768;2022-12-10T11:20:33;11.37;;;6.93;;
6505;SDS011;3286;49.858;8.768;2022-12-10T11:23:01;12.40;;;7.37;;
6505;SDS011;3286;49.858;8.768;2022-12-10T11:25:38;10.33;;;6.43;;
6505;SDS011;3286;49.858;8.768;2022-12-10T11:28:21;15.10;;;7.87;;
6505;SDS011;3286;49.858;8.768;2022-12-10T11:31:11;11.00;;;7.30;;
6505;SDS011;3286;49.858;8.768;2022-12-10T11:33:49;13.30;;;7.23;;
6505;SDS011;3286;49.858;8.768;2022-12-10T11:36:31;12.73;;;7.53;;
6505;SDS011;3286;49.858;8.768;2022-12-10T11:39:07;13.83;;;7.57;;
6505;SDS011;3286;49.858;8.768;2022-12-10T11:41:52;14.40;;;8.13;;
6505;SDS011;3286;49.858;8.768;2022-12-10T11:44:26;12.83;;;8.23;;
6505;SDS011;3286;49.858;8.768;2022-12-10T11:47:04;13.73;;;7.47;;
6505;SDS011;3286;49.858;8.768;2022-12-10T11:49:47;12.40;;;7.97;;
6505;SDS011;3286;49.858;8.768;2022-12-10T11:52:32;12.40;;;8.10;;
6505;SDS011;3286;49.858;8.768;2022-12-10T11:55:17;15.83;;;8.33;;
6505;SDS011;3286;49.858;8.768;2022-12-10T11:57:56;13.00;;;7.57;;
6505;SDS011;3286;49.858;8.768;2022-12-10T12:00:39;12.93;;;7.10;;
6505;SDS011;3286;49.858;8.768;2022-12-10T12:06:15;12.40;;;7.87;;
6505;SDS011;3286;49.858;8.768;2022-12-10T12:09:03;12.47;;;7.63;;
6505;SDS011;3286;49.858;8.768;2022-12-10T12:11:47;11.93;;;7.97;;
6505;SDS011;3286;49.858;8.768;2022-12-10T12:14:26;13.07;;;8.17;;
6505;SDS011;3286;49.858;8.768;2022-12-10T12:16:58;12.77;;;8.20;;
6505;SDS011;3286;49.858;8.768;2022-12-10T12:19:32;15.40;;;8.50;;
6505;SDS011;3286;49.858;8.768;2022-12-10T12:22:06;13.67;;;8.50;;
6505;SDS011;3286;49.858;8.768;2022-12-10T12:24:49;13.50;;;8.20;;
6505;SDS011;3286;49.858;8.768;2022-12-10T12:27:23;14.60;;;8.90;;
6505;SDS011;3286;49.858;8.768;2022-12-10T12:30:00;14.97;;;9.43;;
6505;SDS011;3286;49.858;8.768;2022-12-10T12:32:31;13.20;;;7.83;;
6505;SDS011;3286;49.858;8.768;2022-12-10T12:35:06;16.63;;;9.00;;
6505;SDS011;3286;49.858;8.768;2022-12-10T12:37:42;17.53;;;9.07;;
6505;SDS011;3286;49.858;8.768;2022-12-10T12:40:15;15.33;;;9.53;;
6505;SDS011;3286;49.858;8.768;2022-12-10T12:42:53;14.10;;;8.57;;
6505;SDS011;3286;49.858;8.768;2022-12-10T12:45:31;12.50;;;8.93;;
6505;SDS011;3286;49.858;8.768;2022-12-10T12:48:06;14.70;;;8.97;;
6505;SDS011;3286;49.858;8.768;2022-12-10T12:50:42;19.03;;;8.60;;
6505;SDS011;3286;49.858;8.768;2022-12-10T12:53:13;17.73;;;8.97;;
6505;SDS011;3286;49.858;8.768;2022-12-10T12:55:44;13.97;;;8.80;;
6505;SDS011;3286;49.858;8.768;2022-12-10T12:58:27;15.60;;;9.37;;
6505;SDS011;3286;49.858;8.768;2022-12-10T13:01:05;13.73;;;8.57;;
6505;SDS011;3286;49.858;8.768;2022-12-10T13:03:45;16.37;;;9.20;;
6505;SDS011;3286;49.858;8.768;2022-12-10T13:06:16;16.07;;;9.03;;
6505;SDS011;3286;49.858;8.768;2022-12-10T13:08:52;17.77;;;9.10;;
6505;SDS011;3286;49.858;8.768;2022-12-10T13:11:28;16.23;;;9.23;;
6505;SDS011;3286;49.858;8.768;2022-12-10T13:14:14;15.13;;;8.50;;
6505;SDS011;3286;49.858;8.768;2022-12-10T13:17:08;13.83;;;9.27;;
6505;SDS011;3286;49.858;8.768;2022-12-10T13:19:51;15.53;;;9.30;;
6505;SDS011;3286;49.858;8.768;2022-12-10T13:25:14;16.23;;;8.57;;
6505;SDS011;3286;49.858;8.768;2022-12-10T13:27:56;14.50;;;8.30;;
6505;SDS011;3286;49.858;8.768;2022-12-10T13:30:30;15.50;;;9.00;;
6505;SDS011;3286;49.858;8.768;2022-12-10T13:33:03;13.87;;;8.83;;
6505;SDS011;3286;49.858;8.768;2022-12-10T13:35:43;13.90;;;7.67;;
6505;SDS011;3286;49.858;8.768;2022-12-10T13:38:17;15.00;;;8.50;;
6505;SDS011;3286;49.858;8.768;2022-12-10T13:40:57;14.60;;;8.63;;
6505;SDS011;3286;49.858;8.768;2022-12-10T13:43:54;15.93;;;8.93;;
6505;SDS011;3286;49.858;8.768;2022-12-10T13:49:52;13.77;;;8.13;;
6505;SDS011;3286;49.858;8.768;2022-12-10T13:52:25;18.77;;;8.97;;
6505;SDS011;3286;49.858;8.768;2022-12-10T13:54:59;16.70;;;8.30;;
6505;SDS011;3286;49.858;8.768;2022-12-10T13:57:49;13.77;;;8.40;;
6505;SDS011;3286;49.858;8.768;2022-12-10T14:00:29;15.77;;;8.67;;
6505;SDS011;3286;49.858;8.768;2022-12-10T14:03:16;14.13;;;8.80;;
6505;SDS011;3286;49.858;8.768;2022-12-10T14:06:15;16.57;;;8.93;;
6505;SDS011;3286;49.858;8.768;2022-12-10T14:08:51;13.40;;;8.53;;
6505;SDS011;3286;49.858;8.768;2022-12-10T14:11:25;16.40;;;9.27;;
6505;SDS011;3286;49.858;8.768;2022-12-10T14:13:57;14.43;;;8.70;;
6505;SDS011;3286;49.858;8.768;2022-12-10T14:16:27;15.30;;;7.80;;
6505;SDS011;3286;49.858;8.768;2022-12-10T14:18:57;12.17;;;8.07;;
6505;SDS011;3286;49.858;8.768;2022-12-10T14:21:26;15.67;;;8.43;;
6505;SDS011;3286;49.858;8.768;2022-12-10T14:23:59;11.77;;;7.40;;
6505;SDS011;3286;49.858;8.768;2022-12-10T14:26:35;13.27;;;7.57;;
6505;SDS011;3286;49.858;8.768;2022-12-10T14:29:16;14.03;;;8.13;;
6505;SDS011;3286;49.858;8.768;2022-12-10T14:31:47;13.97;;;8.43;;
6505;SDS011;3286;49.858;8.768;2022-12-10T14:34:28;11.37;;;7.57;;
6505;SDS011;3286;49.858;8.768;2022-12-10T14:36:56;12.17;;;7.43;;
6505;SDS011;3286;49.858;8.768;2022-12-10T14:39:29;12.97;;;8.17;;
6505;SDS011;3286;49.858;8.768;2022-12-10T14:41:58;14.70;;;7.87;;
6505;SDS011;3286;49.858;8.768;2022-12-10T14:44:28;14.70;;;8.53;;
6505;SDS011;3286;49.858;8.768;2022-12-10T14:47:04;14.80;;;8.37;;
6505;SDS011;3286;49.858;8.768;2022-12-10T14:49:39;13.03;;;7.83;;
6505;SDS011;3286;49.858;8.768;2022-12-10T14:52:09;11.47;;;7.87;;
6505;SDS011;3286;49.858;8.768;2022-12-10T14:54:37;11.37;;;7.63;;
6505;SDS011;3286;49.858;8.768;2022-12-10T14:57:05;15.07;;;8.43;;
6505;SDS011;3286;49.858;8.768;2022-12-10T14:59:36;13.97;;;8.37;;
6505;SDS011;3286;49.858;8.768;2022-12-10T15:02:12;16.63;;;8.80;;
6505;SDS011;3286;49.858;8.768;2022-12-10T15:04:46;12.73;;;7.37;;
6505;SDS011;3286;49.858;8.768;2022-12-10T15:07:17;12.37;;;7.43;;
6505;SDS011;3286;49.858;8.768;2022-12-10T15:09:46;11.90;;;7.33;;
6505;SDS011;3286;49.858;8.768;2022-12-10T15:12:19;13.07;;;7.90;;
6505;SDS011;3286;49.858;8.768;2022-12-10T15:14:54;11.40;;;7.23;;
6505;SDS011;3286;49.858;8.768;2022-12-10T15:17:35;10.03;;;6.57;;
6505;SDS011;3286;49.858;8.768;2022-12-10T15:20:09;12.67;;;7.70;;
6505;SDS011;3286;49.858;8.768;2022-12-10T15:22:45;11.40;;;7.30;;
6505;SDS011;3286;49.858;8.768;2022-12-10T15:25:27;11.33;;;7.40;;
6505;SDS011;3286;49.858;8.768;2022-12-10T15:27:55;11.87;;;7.67;;
6505;SDS011;3286;49.858;8.768;2022-12-10T15:30:33;11.50;;;7.13;;
6505;SDS011;3286;49.858;8.768;2022-12-10T15:33:02;13.17;;;7.37;;